createdAt,value
2019-05-13T00:00:54.428Z,11.3
2019-05-13T00:01:10.032Z,11.6
2019-05-13T00:01:25.582Z,12
2019-05-13T00:01:43.306Z,12.3
2019-05-13T00:02:00.281Z,12.3
2019-05-13T00:02:16.311Z,13.2
2019-05-13T00:02:34.438Z,13.5
2019-05-13T00:02:50.161Z,13.9
2019-05-13T00:03:06.223Z,14.3
2019-05-13T00:04:08.573Z,15.5
2019-05-13T00:08:55.522Z,16.1
2019-05-13T00:13:44.400Z,14.2
2019-05-13T00:18:34.152Z,12.7
2019-05-13T00:23:23.387Z,11.4
2019-05-13T00:28:10.474Z,10.4
2019-05-13T00:32:13.330Z,13.6
2019-05-13T00:32:29.056Z,13.9
2019-05-13T00:32:44.818Z,14.3
2019-05-13T00:33:00.427Z,14.7
2019-05-13T00:34:03.706Z,16.4
2019-05-13T00:38:53.430Z,16.7
2019-05-13T00:43:41.052Z,14.7
2019-05-13T00:48:29.686Z,13
2019-05-13T00:53:17.378Z,11.5
2019-05-13T00:58:04.584Z,10.5
2019-05-13T01:02:05.399Z,13.6
2019-05-13T01:02:21.411Z,14
2019-05-13T01:02:37.533Z,14.4
2019-05-13T01:02:53.714Z,14.7
2019-05-13T01:03:09.260Z,15.1
2019-05-13T01:04:11.087Z,16.3
2019-05-13T01:08:57.987Z,16.6
2019-05-13T01:13:44.715Z,14.6
2019-05-13T01:18:33.825Z,12.8
2019-05-13T01:23:21.006Z,11.5
2019-05-13T01:27:23.870Z,10.6
2019-05-13T01:27:39.499Z,10.5
2019-05-13T01:27:55.128Z,10.4
2019-05-13T01:28:10.660Z,10.4
2019-05-13T01:28:27.560Z,10.4
2019-05-13T01:28:43.577Z,10.4
2019-05-13T01:28:59.380Z,10.5
2019-05-13T01:29:14.894Z,10.7
2019-05-13T01:29:30.426Z,10.9
2019-05-13T01:29:45.944Z,11.2
2019-05-13T01:30:03.958Z,11.8
2019-05-13T01:30:19.746Z,11.8
2019-05-13T01:30:35.268Z,12.2
2019-05-13T01:30:50.836Z,12.6
2019-05-13T01:31:06.457Z,12.9
2019-05-13T01:31:23.846Z,13.3
2019-05-13T01:31:39.632Z,13.7
2019-05-13T01:31:56.084Z,13.7
2019-05-13T01:32:14.408Z,14.5
2019-05-13T01:32:30.138Z,14.5
2019-05-13T01:33:34.856Z,16.3
2019-05-13T01:38:24.130Z,16.6
2019-05-13T01:43:11.075Z,14.6
2019-05-13T01:47:58.214Z,12.9
2019-05-13T01:52:47.170Z,11.5
2019-05-13T01:56:47.749Z,11.8
2019-05-13T01:57:04.402Z,12.2
2019-05-13T01:57:20.255Z,12.5
2019-05-13T01:57:35.868Z,12.8
2019-05-13T01:57:53.319Z,13.2
2019-05-13T01:58:10.937Z,13.9
2019-05-13T01:58:27.316Z,14.3
2019-05-13T01:58:44.994Z,14.6
2019-05-13T01:59:00.613Z,14.9
2019-05-13T01:59:16.729Z,15.3
2019-05-13T02:00:21.099Z,16.4
2019-05-13T02:05:08.440Z,16.7
2019-05-13T02:09:55.274Z,14.7
2019-05-13T02:14:44.277Z,12.8
2019-05-13T02:19:34.781Z,11.4
2019-05-13T02:23:35.400Z,10.6
2019-05-13T02:23:53.506Z,10.8
2019-05-13T02:24:09.285Z,11
2019-05-13T02:24:24.848Z,11.2
2019-05-13T02:24:40.379Z,11.5
2019-05-13T02:24:55.945Z,11.8
2019-05-13T02:25:13.658Z,12.2
2019-05-13T02:25:29.576Z,12.5
2019-05-13T02:25:45.131Z,12.8
2019-05-13T02:26:00.682Z,13.2
2019-05-13T02:26:16.300Z,13.5
2019-05-13T02:26:31.874Z,13.9
2019-05-13T02:26:47.431Z,14.3
2019-05-13T02:27:03.686Z,14.6
2019-05-13T02:28:09.223Z,15.8
2019-05-13T02:33:02.451Z,16.2
2019-05-13T02:37:52.555Z,14.1
2019-05-13T02:42:45.109Z,12.3
2019-05-13T02:47:33.224Z,10.8
2019-05-13T02:51:33.788Z,13.2
2019-05-13T02:51:49.341Z,13.6
2019-05-13T02:52:04.899Z,13.9
2019-05-13T02:52:22.406Z,14.3
2019-05-13T02:53:24.831Z,15.8
2019-05-13T02:58:12.579Z,16.1
2019-05-13T03:03:03.272Z,14.1
2019-05-13T03:07:53.162Z,12.2
2019-05-13T03:12:42.385Z,10.6
2019-05-13T03:16:43.450Z,11.2
2019-05-13T03:16:58.981Z,11.5
2019-05-13T03:17:22.363Z,11.5
2019-05-13T03:17:38.575Z,12.3
2019-05-13T03:17:54.580Z,12.7
2019-05-13T03:18:13.320Z,13.4
2019-05-13T03:18:33.094Z,13.5
2019-05-13T03:18:52.419Z,13.8
2019-05-13T03:19:55.675Z,15.6
2019-05-13T03:25:13.453Z,15.6
2019-05-13T03:30:04.195Z,13.3
2019-05-13T03:34:56.185Z,11.6
2019-05-13T03:39:44.280Z,10.2
2019-05-13T03:43:45.195Z,13.1
2019-05-13T03:44:02.587Z,13.5
2019-05-13T03:44:18.527Z,14.1
2019-05-13T03:44:34.303Z,14.2
2019-05-13T03:45:37.138Z,15.3
2019-05-13T03:50:30.668Z,16
2019-05-13T03:55:23.600Z,13.9
2019-05-13T04:00:13.124Z,12
2019-05-13T04:05:04.181Z,10.6
2019-05-13T04:09:20.851Z,11.1
2019-05-13T04:09:42.936Z,12.1
2019-05-13T04:09:58.481Z,12.5
2019-05-13T04:10:14.067Z,12.9
2019-05-13T04:10:33.121Z,13.3
2019-05-13T04:10:52.272Z,13.6
2019-05-13T04:11:08.143Z,14
2019-05-13T04:11:23.685Z,14.4
2019-05-13T04:12:28.408Z,16
2019-05-13T04:17:17.506Z,16.2
2019-05-13T04:22:04.221Z,14.2
2019-05-13T04:26:53.283Z,12.4
2019-05-13T04:31:42.537Z,11.1
2019-05-13T04:35:43.801Z,13.4
2019-05-13T04:36:02.605Z,13.7
2019-05-13T04:36:18.950Z,14
2019-05-13T04:36:42.760Z,14.4
2019-05-13T04:37:45.975Z,16.4
2019-05-13T04:42:33.634Z,16.5
2019-05-13T04:47:22.960Z,14.5
2019-05-13T04:52:13.132Z,12.7
2019-05-13T04:57:02.919Z,11.5
2019-05-13T05:01:09.103Z,11.8
2019-05-13T05:01:24.950Z,12.4
2019-05-13T05:02:04.992Z,13
2019-05-13T05:02:22.303Z,13.4
2019-05-13T05:02:44.720Z,13.7
2019-05-13T05:03:05.163Z,14.4
2019-05-13T05:03:22.364Z,14.7
2019-05-13T05:04:35.216Z,16
2019-05-13T05:09:23.045Z,16.4
2019-05-13T05:14:12.003Z,14.5
2019-05-13T05:19:04.454Z,12.9
2019-05-13T05:23:51.560Z,11.7
2019-05-13T05:27:52.200Z,12.3
2019-05-13T05:28:07.739Z,12.6
2019-05-13T05:28:23.392Z,12.9
2019-05-13T05:28:41.277Z,13.2
2019-05-13T05:28:57.098Z,13.9
2019-05-13T05:29:12.615Z,13.9
2019-05-13T05:29:28.227Z,14.3
2019-05-13T05:29:48.881Z,14.6
2019-05-13T05:30:04.434Z,15
2019-05-13T05:31:06.939Z,16.5
2019-05-13T05:35:54.009Z,16.9
2019-05-13T05:40:42.626Z,15.1
2019-05-13T05:45:31.919Z,13.5
2019-05-13T05:50:23.685Z,12.3
2019-05-13T05:55:11.346Z,11.4
2019-05-13T05:59:12.502Z,14
2019-05-13T05:59:28.160Z,14.4
2019-05-13T06:00:32.342Z,15.9
2019-05-13T06:05:21.397Z,16.5
2019-05-13T06:10:08.290Z,14.9
2019-05-13T06:14:55.783Z,13.5
2019-05-13T06:19:43.421Z,12.4
2019-05-13T06:24:32.643Z,11.7
2019-05-13T06:29:22.223Z,11.1
2019-05-13T06:34:09.732Z,15.5
2019-05-13T06:38:56.796Z,16.4
2019-05-13T06:43:44.019Z,15.1
2019-05-13T06:48:32.332Z,13.8
2019-05-13T06:53:21.771Z,12.8
2019-05-13T06:58:11.426Z,12.1
2019-05-13T07:03:02.072Z,11.7
2019-05-13T07:07:51.290Z,11.4
2019-05-13T07:12:41.180Z,11.2
2019-05-13T07:17:28.632Z,11.1
2019-05-13T07:22:15.814Z,16.1
2019-05-13T07:27:04.296Z,17
2019-05-13T07:31:52.228Z,15.7
2019-05-13T07:36:42.180Z,14.5
2019-05-13T07:41:38.286Z,13.5
2019-05-13T07:46:28.374Z,12.7
2019-05-13T07:51:16.200Z,12.2
2019-05-13T07:56:04.149Z,11.8
2019-05-13T08:00:51.947Z,11.6
2019-05-13T08:05:41.674Z,11.5
2019-05-13T08:10:31.995Z,11.4
2019-05-13T08:15:22.197Z,11.4
2019-05-13T08:20:11.828Z,11.4
2019-05-13T08:25:03.136Z,11.5
2019-05-13T08:29:52.349Z,11.6
2019-05-13T08:34:41.754Z,11.8
2019-05-13T08:39:33.402Z,11.9
2019-05-13T08:44:25.617Z,11.9
2019-05-13T08:49:13.075Z,11.8
2019-05-13T08:54:02.390Z,11.8
2019-05-13T08:58:52.106Z,12
2019-05-13T09:03:41.624Z,12.1
2019-05-13T09:08:28.639Z,12.2
2019-05-13T09:13:15.699Z,12.5
2019-05-13T09:18:02.575Z,13.1
2019-05-13T09:22:51.470Z,13.6
2019-05-13T09:27:38.943Z,14.1
2019-05-13T09:32:25.757Z,14.5
2019-05-13T09:37:12.937Z,14.7
2019-05-13T09:42:02.695Z,14.7
2019-05-13T09:46:51.765Z,14.9
2019-05-13T09:51:41.655Z,15.1
2019-05-13T09:56:31.952Z,15
2019-05-13T10:01:22.354Z,15.1
2019-05-13T10:06:12.669Z,15.5
2019-05-13T10:11:01.634Z,15.9
2019-05-13T10:15:49.167Z,16.2
2019-05-13T10:20:35.975Z,15.9
2019-05-13T10:25:23.613Z,15.5
2019-05-13T10:30:11.540Z,15.4
2019-05-13T10:34:59.566Z,16.1
2019-05-13T10:39:48.807Z,16.6
2019-05-13T10:44:36.577Z,16.4
2019-05-13T10:49:24.077Z,16.5
2019-05-13T10:54:10.896Z,16.8
2019-05-13T10:58:57.897Z,17
2019-05-13T11:03:44.924Z,16.6
2019-05-13T11:08:33.009Z,16.3
2019-05-13T11:13:23.242Z,16.3
2019-05-13T11:18:19.090Z,17
2019-05-13T11:23:07.092Z,17.7
2019-05-13T11:27:58.321Z,17.6
2019-05-13T11:32:46.609Z,17.2
2019-05-13T11:37:33.938Z,16.7
2019-05-13T11:42:22.704Z,16.3
2019-05-13T11:47:12.201Z,16.8
2019-05-13T11:52:01.932Z,17
2019-05-13T11:57:00.956Z,17.7
2019-05-13T12:01:53.495Z,17.8
2019-05-13T12:06:48.620Z,17.4
2019-05-13T12:11:37.109Z,17.2
2019-05-13T12:16:24.456Z,17
2019-05-13T12:21:12.310Z,16.7
2019-05-13T12:26:00.076Z,16.4
2019-05-13T12:30:53.121Z,16.1
2019-05-13T12:35:42.098Z,16
2019-05-13T12:40:33.781Z,16
2019-05-13T12:45:22.563Z,17
2019-05-13T12:50:12.778Z,18.1
2019-05-13T12:55:03.216Z,18
2019-05-13T12:59:50.633Z,18.1
2019-05-13T13:04:37.538Z,18
2019-05-13T13:09:25.540Z,17.7
2019-05-13T13:14:15.648Z,17.4
2019-05-13T13:19:04.849Z,17.2
2019-05-13T13:23:51.722Z,16.9
2019-05-13T13:28:43.393Z,16.8
2019-05-13T13:33:33.938Z,16.7
2019-05-13T13:38:25.309Z,17.2
2019-05-13T13:43:13.839Z,18.6
2019-05-13T13:48:03.971Z,19.4
2019-05-13T13:52:52.958Z,19
2019-05-13T13:57:44.818Z,18.3
2019-05-13T14:02:36.964Z,17.9
2019-05-13T14:07:34.702Z,17.7
2019-05-13T14:12:25.722Z,18
2019-05-13T14:17:12.910Z,18.6
2019-05-13T14:22:01.824Z,19.7
2019-05-13T14:26:52.144Z,20.6
2019-05-13T14:31:41.356Z,22.1
2019-05-13T14:36:29.067Z,23.2
2019-05-13T14:41:15.947Z,22.9
2019-05-13T14:46:03.343Z,22.8
2019-05-13T14:50:52.319Z,21.6
2019-05-13T14:55:41.752Z,20.5
2019-05-13T15:00:29.378Z,19.3
2019-05-13T15:05:16.333Z,18.4
2019-05-13T15:10:03.855Z,17.8
2019-05-13T15:14:52.264Z,18.1
2019-05-13T15:19:42.088Z,18
2019-05-13T15:24:32.071Z,18.4
2019-05-13T15:29:22.293Z,18.7
2019-05-13T15:34:10.392Z,19.3
2019-05-13T15:38:57.630Z,21.6
2019-05-13T15:43:45.445Z,21.2
2019-05-13T15:48:33.057Z,20.2
2019-05-13T15:53:21.427Z,18.9
2019-05-13T15:58:11.772Z,17.9
2019-05-13T16:02:58.798Z,17.2
2019-05-13T16:07:46.898Z,16.7
2019-05-13T16:12:34.198Z,16.5
2019-05-13T16:17:30.610Z,16.4
2019-05-13T16:22:25.310Z,18.2
2019-05-13T16:27:12.148Z,21.6
2019-05-13T16:32:01.487Z,23.3
2019-05-13T16:36:48.940Z,22.8
2019-05-13T16:41:37.888Z,21.9
2019-05-13T16:46:24.955Z,20.7
2019-05-13T16:51:12.767Z,20.4
2019-05-13T16:56:01.701Z,21.3
2019-05-13T17:00:51.581Z,22.9
2019-05-13T17:05:38.993Z,23.3
2019-05-13T17:10:26.302Z,21.9
2019-05-13T17:15:13.153Z,20.2
2019-05-13T17:20:02.226Z,19
2019-05-13T17:24:51.664Z,18.1
2019-05-13T17:29:39.878Z,17.3
2019-05-13T17:34:27.409Z,16.7
2019-05-13T17:39:14.636Z,16.2
2019-05-13T17:44:07.198Z,15.8
2019-05-13T17:48:54.798Z,15.4
2019-05-13T17:53:41.634Z,15
2019-05-13T17:58:28.846Z,14.7
2019-05-13T18:03:16.783Z,14.4
2019-05-13T18:08:03.889Z,14.1
2019-05-13T18:12:51.700Z,13.8
2019-05-13T18:17:41.602Z,13.6
2019-05-13T18:22:31.224Z,13.4
2019-05-13T18:27:18.452Z,13.1
2019-05-13T18:32:06.156Z,12.9
2019-05-13T18:36:54.167Z,12.7
2019-05-13T18:41:41.367Z,12.5
2019-05-13T18:46:32.105Z,12.3
2019-05-13T18:51:21.234Z,12.1
2019-05-13T18:56:08.552Z,12
2019-05-13T19:00:55.559Z,11.9
2019-05-13T19:05:42.611Z,11.7
2019-05-13T19:10:31.351Z,11.6
2019-05-13T19:15:21.217Z,11.5
2019-05-13T19:20:08.668Z,11.3
2019-05-13T19:24:58.163Z,11.1
2019-05-13T19:29:47.496Z,10.9
2019-05-13T19:34:35.516Z,10.8
2019-05-13T19:39:24.457Z,10.6
2019-05-13T19:44:11.242Z,10.4
2019-05-13T19:48:58.821Z,10.2
2019-05-13T19:53:46.560Z,10.1
2019-05-13T19:58:39.086Z,10
2019-05-13T20:03:26.455Z,9.8
2019-05-13T20:08:13.201Z,9.6
2019-05-13T20:13:01.894Z,9.5
2019-05-13T20:17:52.135Z,9.4
2019-05-13T20:22:41.948Z,9.3
2019-05-13T20:27:31.671Z,9.2
2019-05-13T20:32:18.988Z,9
2019-05-13T20:37:07.066Z,9
2019-05-13T20:41:56.386Z,8.8
2019-05-13T20:46:44.233Z,8.7
2019-05-13T20:51:33.139Z,8.6
2019-05-13T20:56:21.470Z,8.5
2019-05-13T21:01:11.063Z,8.3
2019-05-13T21:05:59.075Z,8.3
2019-05-13T21:10:46.821Z,8.2
2019-05-13T21:15:33.578Z,8.1
2019-05-13T21:20:25.059Z,7.9
2019-05-13T21:25:13.820Z,7.8
2019-05-13T21:30:01.356Z,7.7
2019-05-13T21:34:51.466Z,7.6
2019-05-13T21:39:41.105Z,7.5
2019-05-13T21:43:42.150Z,11
2019-05-13T21:43:57.760Z,11.4
2019-05-13T21:44:13.686Z,11.9
2019-05-13T21:45:15.854Z,13.4
2019-05-13T21:50:03.602Z,14.7
2019-05-13T21:54:51.612Z,13
2019-05-13T21:59:41.238Z,11.4
2019-05-13T22:04:29.079Z,10.1
2019-05-13T22:09:16.982Z,9.2
2019-05-13T22:14:05.103Z,8.4
2019-05-13T22:18:52.544Z,8
2019-05-13T22:23:41.175Z,7.5
2019-05-13T22:28:31.092Z,7.2
2019-05-13T22:32:32.341Z,8.3
2019-05-13T22:32:48.169Z,8.7
2019-05-13T22:33:04.128Z,9
2019-05-13T22:33:21.571Z,9.4
2019-05-13T22:33:37.363Z,9.9
2019-05-13T22:33:52.975Z,10.7
2019-05-13T22:34:08.582Z,10.7
2019-05-13T22:34:24.233Z,11.2
2019-05-13T22:34:41.771Z,11.6
2019-05-13T22:34:57.676Z,12
2019-05-13T22:36:01.742Z,13.3
2019-05-13T22:40:51.942Z,14.6
2019-05-13T22:45:41.889Z,12.8
2019-05-13T22:50:30.988Z,11
2019-05-13T22:55:18.604Z,9.7
2019-05-13T23:00:06.038Z,8.6
2019-05-13T23:04:53.581Z,7.8
2019-05-13T23:09:41.713Z,7.3
2019-05-13T23:14:28.921Z,6.9
2019-05-13T23:18:31.721Z,10.1
2019-05-13T23:18:47.905Z,10.5
2019-05-13T23:19:03.847Z,10.9
2019-05-13T23:19:21.580Z,11.3
2019-05-13T23:19:37.607Z,11.7
2019-05-13T23:20:41.028Z,14
2019-05-13T23:25:28.892Z,14.2
2019-05-13T23:30:16.027Z,12.5
2019-05-13T23:35:04.184Z,10.9
2019-05-13T23:39:52.012Z,9.7
2019-05-13T23:44:41.381Z,8.9
2019-05-13T23:49:31.651Z,8.2
2019-05-13T23:54:21.328Z,7.7
2019-05-13T23:59:11.374Z,7.5
